Terminal Aerodrome Forecast
Issued by NWS Nashville, TN

Home | Current Version | Previous Version | Text Only | Print | Product List | Glossary On
Versions: 1 2 3 4 5 6 7 8 9 10 11 12 13 14 15 16 17 18 19 20
000
FTUS44 KOHX 301004 AAB
TAFBNA
TAF AMD
KBNA 301004Z 3010/0106 00000KT 6SM BR BKN004 OVC050
      TEMPO 3010/3013 2SM BR
     FM301400 26005KT P6SM BKN025
     FM301700 27006KT P6SM VCSH SCT025 BKN035=

USA.gov is the U.S. government's official web portal to all federal, state and local government web resources and services.